Willisville, Indiana
Current Conditions -  °F | °C
As of 4:15 AM on Thursday 18 Dec 2014 (Local Time) from KDCY Reporting Station
Overcast Overcast  
Wind Chill: 19°   Ceiling: 1500
Heat Index: 27°   Visibility: 10mi
Dew Point: 20°   Wind: 7mph
Humidity: 76%   Direction: 70°ENE
Pressure: 30.27"   Gusts: NA
Location:  38.4723°N, 87.3105°W
Report Text: KDCY 181015Z AUTO 07006KT 10SM OVC015 M03/M07 A3027 RMK AO2 T10301067
Loading
Personal Weather Stations






























Interactive Weather Map New forecast layout! Learn more

10-Day Weather Forecast

Advertisements
Track Severe Weather on mobile